Asahimaru — JJ3895 — position and weather

sailwx.info

Track history (hours):
 
Tides and Currents Weather Stations Pressure Air Temp Water Temp Dewpoint Dewpoint Depression Visibility Wind Speed Wind Dir Waves Ship Positions

Asahimaru

Last reported at 2018-Feb-19 15:49 UTC. Time now 2018-Feb-20 01:41 UTC.
Position N 34°01' E 131°46'.

Length 48 m.

Type: Tanker. MMSI: 431300201.

Date/timePositionNaut miles runAvg speedWind from/ knotsBaromVisibWave heightAir tempDewpointWater temp
2018-Feb-19 15:49N 34°01' E 131°46'3 8.8
2018-Feb-19 15:29N 33°58' E 131°45'20 0.7
2018-Feb-18 10:27N 33°46' E 132°04'1610.9
2018-Feb-18 09:00N 33°47' E 131°45'611.0
2018-Feb-18 08:28N 33°48' E 131°38'611.4
2018-Feb-18 07:59N 33°49' E 131°32'611.6
2018-Feb-18 07:30N 33°51' E 131°25'611.6
2018-Feb-18 07:00N 33°52' E 131°18'612.0
2018-Feb-18 06:30N 33°54' E 131°11'611.9
2018-Feb-18 06:00N 33°56' E 131°05'611.0
2018-Feb-18 05:30N 33°58' E 130°59'510.1
2018-Feb-18 05:00N 33°54' E 130°55'5 9.9
2018-Feb-18 04:30N 33°57' E 130°51'611.3
2018-Feb-18 03:58N 33°58' E 130°43'511.6
2018-Feb-18 03:30N 33°57' E 130°37'611.5
2018-Feb-18 02:59N 33°55' E 130°30'811.9
2018-Feb-18 02:19N 33°49' E 130°24'811.5
2018-Feb-18 01:35N 33°43' E 130°17'310.2
2018-Feb-18 01:20N 33°41' E 130°17'411.1
2018-Feb-18 00:59N 33°38' E 130°20'3 5.9
2018-Feb-18 00:28N 33°36' E 130°23'0 0.0
2018-Feb-17 23:58N 33°36' E 130°23'0 0.0
2018-Feb-17 23:28N 33°36' E 130°23'1 1.3
2018-Feb-17 23:00N 33°37' E 130°23'1 2.7
2018-Feb-17 22:29N 33°37' E 130°21'0 0.1
2018-Feb-17 21:59N 33°37' E 130°21'1 1.1
2018-Feb-17 21:30N 33°38' E 130°21'5 9.9
2018-Feb-17 20:59N 33°41' E 130°16'5 9.9
2018-Feb-17 20:29N 33°45' E 130°19'510.3
2018-Feb-17 20:00N 33°49' E 130°23'510.5
2018-Feb-17 19:30N 33°53' E 130°27'510.5
2018-Feb-17 18:59N 33°57' E 130°32'510.4
2018-Feb-17 18:30N 33°57' E 130°38'510.3
2018-Feb-17 17:59N 33°58' E 130°44'5 9.8
2018-Feb-17 17:30N 33°58' E 130°50'5 9.3
2018-Feb-17 17:00N 33°55' E 130°54'4 8.1
2018-Feb-17 16:30N 33°58' E 130°57'4 9.0
2018-Feb-17 16:00N 33°58' E 131°03'510.1
2018-Feb-17 15:29N 33°55' E 131°08'5 9.8
2018-Feb-17 15:00N 33°53' E 131°13'5 9.7
2018-Feb-17 14:27N 33°53' E 131°20'510.2
2018-Feb-17 14:00N 33°53' E 131°25'510.4
2018-Feb-17 13:30N 33°53' E 131°32'  
2018-Feb-12 15:09N 34°02' E 132°39'210.6
2018-Feb-12 14:59N 34°01' E 132°37'4810.2
2018-Feb-12 10:16N 33°48' E 131°41'711.3
2018-Feb-12 09:41N 33°49' E 131°34'211.3
2018-Feb-12 09:30N 33°49' E 131°31'611.3
2018-Feb-12 08:58N 33°51' E 131°24'511.3
2018-Feb-12 08:30N 33°52' E 131°18'611.4
2018-Feb-12 08:00N 33°53' E 131°12'611.5
2018-Feb-12 07:30N 33°56' E 131°06'611.3
2018-Feb-12 07:00N 33°58' E 130°59'611.5
2018-Feb-12 06:30N 33°54' E 130°54'1 2.4
2018-Feb-12 05:54N 33°55' E 130°52'0 0.0
2018-Feb-12 05:30N 33°55' E 130°52'0 0.0
2018-Feb-12 05:00N 33°55' E 130°52'1 2.1
2018-Feb-12 04:30N 33°55' E 130°53'3 5.4
2018-Feb-12 04:00N 33°56' E 130°56'4 8.5
2018-Feb-12 03:30N 33°59' E 131°00'3 6.3
2018-Feb-12 02:59N 33°58' E 131°04'0 0.0
2018-Feb-12 02:28N 33°58' E 131°04'0 0.0
2018-Feb-12 01:58N 33°58' E 131°04'0 0.0
2018-Feb-12 01:28N 33°58' E 131°04'0 0.0
2018-Feb-12 00:58N 33°58' E 131°04'0 0.0
2018-Feb-12 00:28N 33°58' E 131°04'0 0.0
2018-Feb-11 23:58N 33°58' E 131°04'0 0.0
2018-Feb-11 23:28N 33°58' E 131°04'0 0.0
2018-Feb-11 22:58N 33°58' E 131°04'0 0.0
2018-Feb-11 22:28N 33°58' E 131°04'0 0.0
2018-Feb-11 21:58N 33°58' E 131°04'0 0.0
2018-Feb-11 21:28N 33°58' E 131°04'0 0.0
2018-Feb-11 20:58N 33°58' E 131°04'0 0.0
2018-Feb-11 20:28N 33°58' E 131°04'0 0.0
2018-Feb-11 19:58N 33°58' E 131°04'0 0.0
2018-Feb-11 19:28N 33°58' E 131°04'0 0.0
2018-Feb-11 18:58N 33°58' E 131°04'0 0.0
2018-Feb-11 18:28N 33°58' E 131°04'0 0.0
2018-Feb-11 17:58N 33°58' E 131°04'0 0.0
2018-Feb-11 17:28N 33°58' E 131°04'0 0.0
2018-Feb-11 16:58N 33°58' E 131°04'2 4.1
2018-Feb-11 16:30N 33°56' E 131°06'5 9.3
2018-Feb-11 16:00N 33°54' E 131°10'5 9.3
2018-Feb-11 15:30N 33°52' E 131°16'5 9.5
2018-Feb-11 15:00N 33°53' E 131°21'5 9.4
2018-Feb-11 14:29N 33°53' E 131°27'156 7.6
2018-Feb-10 17:50N 34°28' E 134°31'411.0
2018-Feb-10 17:25N 34°30' E 134°36'510.7
2018-Feb-10 16:58N 34°31' E 134°42'510.5
2018-Feb-10 16:30N 34°33' E 134°47'510.2
2018-Feb-10 15:59N 34°35' E 134°53'5 9.7
2018-Feb-10 15:30N 34°37' E 134°59'4 8.3
2018-Feb-10 15:00N 34°33' E 135°01'1 2.8
2018-Feb-10 14:29N 34°33' E 134°60'0 0.0
2018-Feb-10 13:59N 34°33' E 134°60'0 0.0
2018-Feb-10 13:26N 34°33' E 134°60'0 0.0
2018-Feb-10 12:56N 34°33' E 134°60'0 0.0
2018-Feb-10 12:20N 34°33' E 134°60'0 0.0
2018-Feb-10 11:59N 34°33' E 134°60'0 0.0
2018-Feb-10 11:29N 34°33' E 134°60'0 0.0
2018-Feb-10 10:59N 34°33' E 134°60'0 0.0
2018-Feb-10 10:29N 34°33' E 134°60'0 0.0
2018-Feb-10 09:59N 34°33' E 134°60'0 0.0
2018-Feb-10 09:26N 34°33' E 134°60'0 0.0
2018-Feb-10 08:59N 34°33' E 134°60'0 0.0
2018-Feb-10 08:29N 34°33' E 134°60'0 0.0
2018-Feb-10 07:59N 34°33' E 134°60'0 0.0
2018-Feb-10 07:26N 34°33' E 134°60'0 0.0
2018-Feb-10 06:59N 34°33' E 134°60'0 0.0
2018-Feb-10 06:29N 34°33' E 134°60'0 0.0
2018-Feb-10 05:59N 34°33' E 134°60'0 0.0
2018-Feb-10 05:29N 34°33' E 134°60'0 0.0
2018-Feb-10 04:56N 34°33' E 134°60'0 0.0
2018-Feb-10 04:29N 34°33' E 134°60'0 0.0
2018-Feb-10 03:59N 34°33' E 134°60'0 0.0
2018-Feb-10 03:26N 34°33' E 134°60'0 0.0
2018-Feb-10 02:53N 34°33' E 134°60'0 0.0
2018-Feb-10 02:26N 34°33' E 134°60'0 0.0
2018-Feb-10 01:59N 34°33' E 134°60'0 0.0
2018-Feb-10 01:29N 34°33' E 134°60'0 0.0
2018-Feb-10 00:59N 34°33' E 134°60'0 0.0
2018-Feb-10 00:26N 34°33' E 134°60'0 0.0
2018-Feb-09 23:59N 34°33' E 134°60'0 0.0
2018-Feb-09 23:29N 34°33' E 134°60'0 0.0
2018-Feb-09 22:59N 34°33' E 134°60'0 0.0
2018-Feb-09 22:44N 34°33' E 134°60'  
Track history (hours):
 
Tides and Currents Weather Stations Pressure Air Temp Water Temp Dewpoint Dewpoint Depression Visibility Wind Speed Wind Dir Waves Ship Positions

Asahimaru

Last reported at 2018-Feb-19 15:49 UTC. Time now 2018-Feb-20 01:41 UTC.
Position N 34°01' E 131°46'.

Length 48 m.

Type: Tanker. MMSI: 431300201.

Date/timePositionNaut miles runAvg speedWind from/ knotsBaromVisibWave heightAir tempDewpointWater temp
2018-Feb-19 15:49N 34°01' E 131°46'3 8.8
2018-Feb-19 15:29N 33°58' E 131°45'20 0.7
2018-Feb-18 10:27N 33°46' E 132°04'1610.9
2018-Feb-18 09:00N 33°47' E 131°45'611.0
2018-Feb-18 08:28N 33°48' E 131°38'611.4
2018-Feb-18 07:59N 33°49' E 131°32'611.6
2018-Feb-18 07:30N 33°51' E 131°25'611.6
2018-Feb-18 07:00N 33°52' E 131°18'612.0
2018-Feb-18 06:30N 33°54' E 131°11'611.9
2018-Feb-18 06:00N 33°56' E 131°05'611.0
2018-Feb-18 05:30N 33°58' E 130°59'510.1
2018-Feb-18 05:00N 33°54' E 130°55'5 9.9
2018-Feb-18 04:30N 33°57' E 130°51'611.3
2018-Feb-18 03:58N 33°58' E 130°43'511.6
2018-Feb-18 03:30N 33°57' E 130°37'611.5
2018-Feb-18 02:59N 33°55' E 130°30'811.9
2018-Feb-18 02:19N 33°49' E 130°24'811.5
2018-Feb-18 01:35N 33°43' E 130°17'310.2
2018-Feb-18 01:20N 33°41' E 130°17'411.1
2018-Feb-18 00:59N 33°38' E 130°20'3 5.9
2018-Feb-18 00:28N 33°36' E 130°23'0 0.0
2018-Feb-17 23:58N 33°36' E 130°23'0 0.0
2018-Feb-17 23:28N 33°36' E 130°23'1 1.3
2018-Feb-17 23:00N 33°37' E 130°23'1 2.7
2018-Feb-17 22:29N 33°37' E 130°21'0 0.1
2018-Feb-17 21:59N 33°37' E 130°21'1 1.1
2018-Feb-17 21:30N 33°38' E 130°21'5 9.9
2018-Feb-17 20:59N 33°41' E 130°16'5 9.9
2018-Feb-17 20:29N 33°45' E 130°19'510.3
2018-Feb-17 20:00N 33°49' E 130°23'510.5
2018-Feb-17 19:30N 33°53' E 130°27'510.5
2018-Feb-17 18:59N 33°57' E 130°32'510.4
2018-Feb-17 18:30N 33°57' E 130°38'510.3
2018-Feb-17 17:59N 33°58' E 130°44'5 9.8
2018-Feb-17 17:30N 33°58' E 130°50'5 9.3
2018-Feb-17 17:00N 33°55' E 130°54'4 8.1
2018-Feb-17 16:30N 33°58' E 130°57'4 9.0
2018-Feb-17 16:00N 33°58' E 131°03'510.1
2018-Feb-17 15:29N 33°55' E 131°08'5 9.8
2018-Feb-17 15:00N 33°53' E 131°13'5 9.7
2018-Feb-17 14:27N 33°53' E 131°20'510.2
2018-Feb-17 14:00N 33°53' E 131°25'510.4
2018-Feb-17 13:30N 33°53' E 131°32'  
2018-Feb-12 15:09N 34°02' E 132°39'210.6
2018-Feb-12 14:59N 34°01' E 132°37'4810.2
2018-Feb-12 10:16N 33°48' E 131°41'711.3
2018-Feb-12 09:41N 33°49' E 131°34'211.3
2018-Feb-12 09:30N 33°49' E 131°31'611.3
2018-Feb-12 08:58N 33°51' E 131°24'511.3
2018-Feb-12 08:30N 33°52' E 131°18'611.4
2018-Feb-12 08:00N 33°53' E 131°12'611.5
2018-Feb-12 07:30N 33°56' E 131°06'611.3
2018-Feb-12 07:00N 33°58' E 130°59'611.5
2018-Feb-12 06:30N 33°54' E 130°54'1 2.4
2018-Feb-12 05:54N 33°55' E 130°52'0 0.0
2018-Feb-12 05:30N 33°55' E 130°52'0 0.0
2018-Feb-12 05:00N 33°55' E 130°52'1 2.1
2018-Feb-12 04:30N 33°55' E 130°53'3 5.4
2018-Feb-12 04:00N 33°56' E 130°56'4 8.5
2018-Feb-12 03:30N 33°59' E 131°00'3 6.3
2018-Feb-12 02:59N 33°58' E 131°04'0 0.0
2018-Feb-12 02:28N 33°58' E 131°04'0 0.0
2018-Feb-12 01:58N 33°58' E 131°04'0 0.0
2018-Feb-12 01:28N 33°58' E 131°04'0 0.0
2018-Feb-12 00:58N 33°58' E 131°04'0 0.0
2018-Feb-12 00:28N 33°58' E 131°04'0 0.0
2018-Feb-11 23:58N 33°58' E 131°04'0 0.0
2018-Feb-11 23:28N 33°58' E 131°04'0 0.0
2018-Feb-11 22:58N 33°58' E 131°04'0 0.0
2018-Feb-11 22:28N 33°58' E 131°04'0 0.0
2018-Feb-11 21:58N 33°58' E 131°04'0 0.0
2018-Feb-11 21:28N 33°58' E 131°04'0 0.0
2018-Feb-11 20:58N 33°58' E 131°04'0 0.0
2018-Feb-11 20:28N 33°58' E 131°04'0 0.0
2018-Feb-11 19:58N 33°58' E 131°04'0 0.0
2018-Feb-11 19:28N 33°58' E 131°04'0 0.0
2018-Feb-11 18:58N 33°58' E 131°04'0 0.0
2018-Feb-11 18:28N 33°58' E 131°04'0 0.0
2018-Feb-11 17:58N 33°58' E 131°04'0 0.0
2018-Feb-11 17:28N 33°58' E 131°04'0 0.0
2018-Feb-11 16:58N 33°58' E 131°04'2 4.1
2018-Feb-11 16:30N 33°56' E 131°06'5 9.3
2018-Feb-11 16:00N 33°54' E 131°10'5 9.3
2018-Feb-11 15:30N 33°52' E 131°16'5 9.5
2018-Feb-11 15:00N 33°53' E 131°21'5 9.4
2018-Feb-11 14:29N 33°53' E 131°27'156 7.6
2018-Feb-10 17:50N 34°28' E 134°31'411.0
2018-Feb-10 17:25N 34°30' E 134°36'510.7
2018-Feb-10 16:58N 34°31' E 134°42'510.5
2018-Feb-10 16:30N 34°33' E 134°47'510.2
2018-Feb-10 15:59N 34°35' E 134°53'5 9.7
2018-Feb-10 15:30N 34°37' E 134°59'4 8.3
2018-Feb-10 15:00N 34°33' E 135°01'1 2.8
2018-Feb-10 14:29N 34°33' E 134°60'0 0.0
2018-Feb-10 13:59N 34°33' E 134°60'0 0.0
2018-Feb-10 13:26N 34°33' E 134°60'0 0.0
2018-Feb-10 12:56N 34°33' E 134°60'0 0.0
2018-Feb-10 12:20N 34°33' E 134°60'0 0.0
2018-Feb-10 11:59N 34°33' E 134°60'0 0.0
2018-Feb-10 11:29N 34°33' E 134°60'0 0.0
2018-Feb-10 10:59N 34°33' E 134°60'0 0.0
2018-Feb-10 10:29N 34°33' E 134°60'0 0.0
2018-Feb-10 09:59N 34°33' E 134°60'0 0.0
2018-Feb-10 09:26N 34°33' E 134°60'0 0.0
2018-Feb-10 08:59N 34°33' E 134°60'0 0.0
2018-Feb-10 08:29N 34°33' E 134°60'0 0.0
2018-Feb-10 07:59N 34°33' E 134°60'0 0.0
2018-Feb-10 07:26N 34°33' E 134°60'0 0.0
2018-Feb-10 06:59N 34°33' E 134°60'0 0.0
2018-Feb-10 06:29N 34°33' E 134°60'0 0.0
2018-Feb-10 05:59N 34°33' E 134°60'0 0.0
2018-Feb-10 05:29N 34°33' E 134°60'0 0.0
2018-Feb-10 04:56N 34°33' E 134°60'0 0.0
2018-Feb-10 04:29N 34°33' E 134°60'0 0.0
2018-Feb-10 03:59N 34°33' E 134°60'0 0.0
2018-Feb-10 03:26N 34°33' E 134°60'0 0.0
2018-Feb-10 02:53N 34°33' E 134°60'0 0.0
2018-Feb-10 02:26N 34°33' E 134°60'0 0.0
2018-Feb-10 01:59N 34°33' E 134°60'0 0.0
2018-Feb-10 01:29N 34°33' E 134°60'0 0.0
2018-Feb-10 00:59N 34°33' E 134°60'0 0.0
2018-Feb-10 00:26N 34°33' E 134°60'0 0.0
2018-Feb-09 23:59N 34°33' E 134°60'0 0.0
2018-Feb-09 23:29N 34°33' E 134°60'0 0.0
2018-Feb-09 22:59N 34°33' E 134°60'0 0.0
2018-Feb-09 22:44N 34°33' E 134°60'  

Dump ship's entire track history